sensor_id;sensor_type;location;lat;lon;timestamp;pressure;altitude;pressure_sealevel;temperature;humidity
11053;BME280;55230;42.602;23.470;2024-01-10T00:01:35;94463.03;;;-6.26;74.27
11053;BME280;55230;42.602;23.470;2024-01-10T00:04:01;94449.69;;;-6.15;74.68
11053;BME280;55230;42.602;23.470;2024-01-10T00:06:26;94452.34;;;-5.87;74.26
11053;BME280;55230;42.602;23.470;2024-01-10T00:08:52;94440.28;;;-5.73;72.88
11053;BME280;55230;42.602;23.470;2024-01-10T00:11:17;94445.97;;;-5.66;74.24
11053;BME280;55230;42.602;23.470;2024-01-10T00:13:43;94451.25;;;-5.56;74.46
11053;BME280;55230;42.602;23.470;2024-01-10T00:16:09;94451.03;;;-5.54;72.89
11053;BME280;55230;42.602;23.470;2024-01-10T00:18:36;94457.69;;;-5.48;73.43
11053;BME280;55230;42.602;23.470;2024-01-10T00:21:02;94451.44;;;-5.69;72.95
11053;BME280;55230;42.602;23.470;2024-01-10T00:23:27;94457.72;;;-5.72;74.15
11053;BME280;55230;42.602;23.470;2024-01-10T00:25:52;94464.28;;;-5.71;72.70
11053;BME280;55230;42.602;23.470;2024-01-10T00:28:18;94453.19;;;-5.70;72.45
11053;BME280;55230;42.602;23.470;2024-01-10T00:30:46;94468.03;;;-5.73;71.76
11053;BME280;55230;42.602;23.470;2024-01-10T00:33:13;94457.91;;;-5.85;72.21
11053;BME280;55230;42.602;23.470;2024-01-10T00:35:39;94466.91;;;-5.77;72.85
11053;BME280;55230;42.602;23.470;2024-01-10T00:38:04;94462.53;;;-5.82;71.89
11053;BME280;55230;42.602;23.470;2024-01-10T00:40:30;94461.09;;;-5.78;73.25
11053;BME280;55230;42.602;23.470;2024-01-10T00:42:55;94467.34;;;-5.69;73.55
11053;BME280;55230;42.602;23.470;2024-01-10T00:45:20;94466.56;;;-5.81;72.77
11053;BME280;55230;42.602;23.470;2024-01-10T00:47:48;94466.44;;;-5.86;71.81
11053;BME280;55230;42.602;23.470;2024-01-10T00:50:14;94469.66;;;-5.79;71.54
11053;BME280;55230;42.602;23.470;2024-01-10T00:52:39;94468.88;;;-5.79;72.46
11053;BME280;55230;42.602;23.470;2024-01-10T00:55:05;94466.13;;;-5.66;74.24
11053;BME280;55230;42.602;23.470;2024-01-10T00:57:30;94465.59;;;-5.56;73.80
11053;BME280;55230;42.602;23.470;2024-01-10T00:59:56;94463.94;;;-5.86;75.20
11053;BME280;55230;42.602;23.470;2024-01-10T01:02:21;94469.75;;;-6.20;75.89
11053;BME280;55230;42.602;23.470;2024-01-10T01:05:15;94469.09;;;-6.57;80.39
11053;BME280;55230;42.602;23.470;2024-01-10T01:08:29;94479.50;;;-6.54;82.25
11053;BME280;55230;42.602;23.470;2024-01-10T01:11:14;94443.06;;;-6.81;81.88
11053;BME280;55230;42.602;23.470;2024-01-10T01:14:06;94468.03;;;-6.68;82.58
11053;BME280;55230;42.602;23.470;2024-01-10T01:17:11;94463.88;;;-6.74;83.34
11053;BME280;55230;42.602;23.470;2024-01-10T01:19:55;94468.63;;;-6.84;82.87
11053;BME280;55230;42.602;23.470;2024-01-10T01:22:31;94434.88;;;-7.07;83.26
11053;BME280;55230;42.602;23.470;2024-01-10T01:25:33;94418.47;;;-7.27;83.38
11053;BME280;55230;42.602;23.470;2024-01-10T01:28:25;94435.56;;;-7.18;83.44
11053;BME280;55230;42.602;23.470;2024-01-10T01:34:13;94427.34;;;-7.25;83.07
11053;BME280;55230;42.602;23.470;2024-01-10T01:36:49;94414.00;;;-7.25;84.00
11053;BME280;55230;42.602;23.470;2024-01-10T01:40:12;94419.50;;;-7.17;84.08
11053;BME280;55230;42.602;23.470;2024-01-10T01:43:27;94449.31;;;-7.02;82.95
11053;BME280;55230;42.602;23.470;2024-01-10T01:49:11;94427.03;;;-7.17;83.97
11053;BME280;55230;42.602;23.470;2024-01-10T01:51:38;94452.44;;;-6.88;83.63
11053;BME280;55230;42.602;23.470;2024-01-10T01:54:06;94447.41;;;-6.88;83.58
11053;BME280;55230;42.602;23.470;2024-01-10T01:56:35;94435.38;;;-6.86;83.66
11053;BME280;55230;42.602;23.470;2024-01-10T01:59:01;94434.94;;;-6.83;83.17
11053;BME280;55230;42.602;23.470;2024-01-10T02:01:27;94430.31;;;-6.98;83.77
11053;BME280;55230;42.602;23.470;2024-01-10T02:03:53;94428.84;;;-7.06;83.28
11053;BME280;55230;42.602;23.470;2024-01-10T02:06:19;94431.06;;;-6.97;83.91
11053;BME280;55230;42.602;23.470;2024-01-10T02:08:45;94427.13;;;-7.05;83.22
11053;BME280;55230;42.602;23.470;2024-01-10T02:11:10;94428.09;;;-7.06;83.41
11053;BME280;55230;42.602;23.470;2024-01-10T02:13:35;94429.53;;;-6.98;83.95
11053;BME280;55230;42.602;23.470;2024-01-10T02:16:01;94436.72;;;-7.02;83.25
11053;BME280;55230;42.602;23.470;2024-01-10T02:18:28;94404.56;;;-7.30;82.89
11053;BME280;55230;42.602;23.470;2024-01-10T02:20:54;94434.16;;;-7.14;82.64
11053;BME280;55230;42.602;23.470;2024-01-10T02:23:19;94430.97;;;-7.21;84.00
11053;BME280;55230;42.602;23.470;2024-01-10T02:25:44;94435.91;;;-7.14;83.28
11053;BME280;55230;42.602;23.470;2024-01-10T02:28:10;94437.22;;;-6.93;83.35
11053;BME280;55230;42.602;23.470;2024-01-10T02:30:36;94443.38;;;-7.08;83.00
11053;BME280;55230;42.602;23.470;2024-01-10T02:33:01;94437.25;;;-7.12;82.16
11053;BME280;55230;42.602;23.470;2024-01-10T02:35:27;94433.19;;;-7.13;82.95
11053;BME280;55230;42.602;23.470;2024-01-10T02:37:53;94435.28;;;-7.10;83.10
11053;BME280;55230;42.602;23.470;2024-01-10T02:40:19;94433.19;;;-7.13;83.06
11053;BME280;55230;42.602;23.470;2024-01-10T02:42:45;94434.09;;;-7.07;83.31
11053;BME280;55230;42.602;23.470;2024-01-10T02:45:10;94431.94;;;-7.22;83.47
11053;BME280;55230;42.602;23.470;2024-01-10T02:47:36;94428.16;;;-7.31;83.41
11053;BME280;55230;42.602;23.470;2024-01-10T02:50:05;94422.66;;;-7.21;83.31
11053;BME280;55230;42.602;23.470;2024-01-10T02:52:30;94440.72;;;-7.13;83.11
11053;BME280;55230;42.602;23.470;2024-01-10T02:54:56;94428.16;;;-7.13;83.30
11053;BME280;55230;42.602;23.470;2024-01-10T02:57:21;94433.03;;;-7.18;83.17
11053;BME280;55230;42.602;23.470;2024-01-10T02:59:47;94424.41;;;-7.22;83.10
11053;BME280;55230;42.602;23.470;2024-01-10T03:02:12;94422.09;;;-7.23;83.20
11053;BME280;55230;42.602;23.470;2024-01-10T03:04:37;94440.16;;;-7.15;83.92
11053;BME280;55230;42.602;23.470;2024-01-10T03:07:03;94426.63;;;-7.14;83.75
11053;BME280;55230;42.602;23.470;2024-01-10T03:09:28;94433.03;;;-7.18;83.88
11053;BME280;55230;42.602;23.470;2024-01-10T03:11:54;94431.25;;;-7.29;83.86
11053;BME280;55230;42.602;23.470;2024-01-10T03:14:19;94437.44;;;-7.31;83.67
11053;BME280;55230;42.602;23.470;2024-01-10T03:16:44;94425.94;;;-7.39;83.61
11053;BME280;55230;42.602;23.470;2024-01-10T03:19:11;94440.69;;;-7.24;83.15
11053;BME280;55230;42.602;23.470;2024-01-10T03:21:36;94438.56;;;-7.27;83.58
11053;BME280;55230;42.602;23.470;2024-01-10T03:24:02;94424.31;;;-7.33;83.82
11053;BME280;55230;42.602;23.470;2024-01-10T03:26:28;94434.50;;;-7.10;84.56
11053;BME280;55230;42.602;23.470;2024-01-10T03:28:55;94434.88;;;-7.25;82.96
11053;BME280;55230;42.602;23.470;2024-01-10T03:31:21;94434.03;;;-7.37;83.15
11053;BME280;55230;42.602;23.470;2024-01-10T03:33:46;94431.75;;;-7.38;83.67
11053;BME280;55230;42.602;23.470;2024-01-10T03:36:14;94434.69;;;-7.42;83.30
11053;BME280;55230;42.602;23.470;2024-01-10T03:38:40;94446.47;;;-7.42;84.24
11053;BME280;55230;42.602;23.470;2024-01-10T03:41:05;94440.13;;;-7.45;83.78
11053;BME280;55230;42.602;23.470;2024-01-10T03:43:31;94433.56;;;-7.46;83.45
11053;BME280;55230;42.602;23.470;2024-01-10T03:45:59;94437.75;;;-7.40;83.64
11053;BME280;55230;42.602;23.470;2024-01-10T03:48:24;94441.66;;;-7.44;82.76
11053;BME280;55230;42.602;23.470;2024-01-10T03:50:50;94437.25;;;-7.30;82.61
11053;BME280;55230;42.602;23.470;2024-01-10T03:53:15;94429.69;;;-7.12;83.08
11053;BME280;55230;42.602;23.470;2024-01-10T03:55:41;94435.69;;;-7.13;83.49
11053;BME280;55230;42.602;23.470;2024-01-10T03:58:06;94450.28;;;-7.03;83.08
11053;BME280;55230;42.602;23.470;2024-01-10T04:00:32;94444.56;;;-6.92;83.05
11053;BME280;55230;42.602;23.470;2024-01-10T04:02:57;94439.13;;;-7.25;82.50
11053;BME280;55230;42.602;23.470;2024-01-10T04:08:51;94456.31;;;-7.41;84.07
11053;BME280;55230;42.602;23.470;2024-01-10T04:22:03;94458.53;;;-7.51;84.28
11053;BME280;55230;42.602;23.470;2024-01-10T04:24:52;94426.22;;;-7.65;83.24
11053;BME280;55230;42.602;23.470;2024-01-10T04:27:41;94451.19;;;-7.52;82.95
11053;BME280;55230;42.602;23.470;2024-01-10T04:30:33;94455.47;;;-7.34;83.16
11053;BME280;55230;42.602;23.470;2024-01-10T04:32:59;94471.06;;;-7.08;83.55
11053;BME280;55230;42.602;23.470;2024-01-10T04:35:24;94477.47;;;-7.12;82.81
11053;BME280;55230;42.602;23.470;2024-01-10T04:37:50;94477.06;;;-7.09;81.97
11053;BME280;55230;42.602;23.470;2024-01-10T04:40:15;94473.69;;;-7.03;82.06
11053;BME280;55230;42.602;23.470;2024-01-10T04:42:41;94481.78;;;-7.19;82.36
11053;BME280;55230;42.602;23.470;2024-01-10T04:45:06;94485.28;;;-7.01;82.98
11053;BME280;55230;42.602;23.470;2024-01-10T04:47:32;94483.84;;;-7.09;82.11
11053;BME280;55230;42.602;23.470;2024-01-10T04:49:58;94480.22;;;-6.83;81.19
11053;BME280;55230;42.602;23.470;2024-01-10T04:52:23;94478.03;;;-6.91;81.49
11053;BME280;55230;42.602;23.470;2024-01-10T04:54:48;94483.25;;;-6.75;81.56
11053;BME280;55230;42.602;23.470;2024-01-10T04:57:15;94486.09;;;-6.71;80.95
11053;BME280;55230;42.602;23.470;2024-01-10T04:59:41;94490.75;;;-7.05;81.93
11053;BME280;55230;42.602;23.470;2024-01-10T05:02:07;94491.44;;;-6.97;83.28
11053;BME280;55230;42.602;23.470;2024-01-10T05:04:32;94500.16;;;-7.00;82.50
11053;BME280;55230;42.602;23.470;2024-01-10T05:06:58;94497.22;;;-6.97;81.59
11053;BME280;55230;42.602;23.470;2024-01-10T05:09:23;94498.38;;;-7.11;81.93
11053;BME280;55230;42.602;23.470;2024-01-10T05:11:48;94480.97;;;-7.31;81.96
11053;BME280;55230;42.602;23.470;2024-01-10T05:14:17;94495.22;;;-7.07;82.85
11053;BME280;55230;42.602;23.470;2024-01-10T05:16:45;94489.47;;;-7.14;82.91
11053;BME280;55230;42.602;23.470;2024-01-10T05:19:10;94497.59;;;-7.12;81.53
11053;BME280;55230;42.602;23.470;2024-01-10T05:21:36;94496.97;;;-7.07;80.51
11053;BME280;55230;42.602;23.470;2024-01-10T05:24:01;94488.25;;;-7.23;81.46
11053;BME280;55230;42.602;23.470;2024-01-10T05:26:26;94496.56;;;-7.22;81.44
11053;BME280;55230;42.602;23.470;2024-01-10T05:28:52;94487.31;;;-7.28;82.43
11053;BME280;55230;42.602;23.470;2024-01-10T05:31:17;94499.38;;;-7.37;82.27
11053;BME280;55230;42.602;23.470;2024-01-10T05:33:43;94494.09;;;-7.29;82.36
11053;BME280;55230;42.602;23.470;2024-01-10T05:36:09;94506.59;;;-7.22;82.85
11053;BME280;55230;42.602;23.470;2024-01-10T05:38:38;94504.56;;;-7.14;82.83
11053;BME280;55230;42.602;23.470;2024-01-10T05:41:03;94503.53;;;-7.24;82.27
11053;BME280;55230;42.602;23.470;2024-01-10T05:43:29;94507.38;;;-7.22;82.46
11053;BME280;55230;42.602;23.470;2024-01-10T05:45:54;94512.31;;;-7.15;82.88
11053;BME280;55230;42.602;23.470;2024-01-10T05:48:19;94501.09;;;-7.13;83.09
11053;BME280;55230;42.602;23.470;2024-01-10T05:50:45;94505.69;;;-7.10;81.56
11053;BME280;55230;42.602;23.470;2024-01-10T05:53:10;94502.22;;;-7.09;82.17
11053;BME280;55230;42.602;23.470;2024-01-10T05:55:37;94510.63;;;-7.03;82.85
11053;BME280;55230;42.602;23.470;2024-01-10T05:58:03;94502.13;;;-7.02;81.82
11053;BME280;55230;42.602;23.470;2024-01-10T06:00:29;94517.50;;;-6.92;81.97
11053;BME280;55230;42.602;23.470;2024-01-10T06:02:54;94520.16;;;-7.05;81.89
11053;BME280;55230;42.602;23.470;2024-01-10T06:26:09;94515.34;;;-7.25;82.45
11053;BME280;55230;42.602;23.470;2024-01-10T06:28:34;94533.78;;;-7.13;82.14
11053;BME280;55230;42.602;23.470;2024-01-10T06:31:00;94520.38;;;-7.07;81.88
11053;BME280;55230;42.602;23.470;2024-01-10T06:33:25;94524.91;;;-6.97;81.94
11053;BME280;55230;42.602;23.470;2024-01-10T06:35:51;94535.94;;;-6.98;81.63
11053;BME280;55230;42.602;23.470;2024-01-10T06:38:16;94547.28;;;-6.89;82.36
11053;BME280;55230;42.602;23.470;2024-01-10T06:40:42;94550.81;;;-6.96;81.17
11053;BME280;55230;42.602;23.470;2024-01-10T06:43:09;94548.94;;;-7.01;81.53
11053;BME280;55230;42.602;23.470;2024-01-10T06:45:35;94544.53;;;-7.06;81.44
11053;BME280;55230;42.602;23.470;2024-01-10T06:48:00;94545.78;;;-6.96;80.34
11053;BME280;55230;42.602;23.470;2024-01-10T06:50:26;94562.78;;;-6.92;80.00
11053;BME280;55230;42.602;23.470;2024-01-10T06:52:51;94550.13;;;-7.04;80.70
11053;BME280;55230;42.602;23.470;2024-01-10T06:56:01;94524.34;;;-7.17;80.62
11053;BME280;55230;42.602;23.470;2024-01-10T07:25:35;94558.94;;;-6.76;79.30
11053;BME280;55230;42.602;23.470;2024-01-10T07:28:00;94560.53;;;-6.63;79.05
11053;BME280;55230;42.602;23.470;2024-01-10T07:30:26;94578.66;;;-6.55;78.71
11053;BME280;55230;42.602;23.470;2024-01-10T07:32:51;94584.34;;;-6.48;77.94
11053;BME280;55230;42.602;23.470;2024-01-10T07:35:17;94582.63;;;-6.65;78.50
11053;BME280;55230;42.602;23.470;2024-01-10T07:37:43;94583.75;;;-6.80;78.85
11053;BME280;55230;42.602;23.470;2024-01-10T07:40:09;94578.66;;;-6.91;79.66
11053;BME280;55230;42.602;23.470;2024-01-10T07:42:36;94592.41;;;-6.94;80.17
11053;BME280;55230;42.602;23.470;2024-01-10T07:45:02;94590.53;;;-6.80;79.99
11053;BME280;55230;42.602;23.470;2024-01-10T07:47:32;94602.94;;;-7.04;79.22
11053;BME280;55230;42.602;23.470;2024-01-10T07:49:59;94602.81;;;-6.90;78.83
11053;BME280;55230;42.602;23.470;2024-01-10T07:52:25;94594.34;;;-6.96;78.42
11053;BME280;55230;42.602;23.470;2024-01-10T07:54:50;94597.66;;;-6.95;77.98
11053;BME280;55230;42.602;23.470;2024-01-10T07:57:15;94599.22;;;-7.01;78.16
11053;BME280;55230;42.602;23.470;2024-01-10T07:59:44;94609.59;;;-6.91;77.66
11053;BME280;55230;42.602;23.470;2024-01-10T08:02:09;94608.09;;;-6.74;77.36
11053;BME280;55230;42.602;23.470;2024-01-10T08:04:35;94606.56;;;-6.99;77.24
11053;BME280;55230;42.602;23.470;2024-01-10T08:07:01;94591.59;;;-6.88;76.53
11053;BME280;55230;42.602;23.470;2024-01-10T08:09:26;94605.47;;;-6.67;75.73
11053;BME280;55230;42.602;23.470;2024-01-10T08:11:52;94599.88;;;-6.69;74.46
11053;BME280;55230;42.602;23.470;2024-01-10T08:14:17;94584.25;;;-6.71;73.62
11053;BME280;55230;42.602;23.470;2024-01-10T08:16:42;94616.94;;;-5.75;70.61
11053;BME280;55230;42.602;23.470;2024-01-10T08:19:08;94622.59;;;-6.21;71.19
11053;BME280;55230;42.602;23.470;2024-01-10T08:21:34;94612.75;;;-6.22;71.02
11053;BME280;55230;42.602;23.470;2024-01-10T08:24:01;94610.78;;;-6.20;72.24
11053;BME280;55230;42.602;23.470;2024-01-10T08:26:27;94607.31;;;-6.38;71.49
11053;BME280;55230;42.602;23.470;2024-01-10T08:28:53;94606.03;;;-5.99;71.14
11053;BME280;55230;42.602;23.470;2024-01-10T08:31:18;94605.19;;;-5.81;70.90
11053;BME280;55230;42.602;23.470;2024-01-10T08:33:44;94611.22;;;-5.29;70.31
11053;BME280;55230;42.602;23.470;2024-01-10T08:36:10;94616.63;;;-5.67;70.13
11053;BME280;55230;42.602;23.470;2024-01-10T08:38:36;94585.72;;;-5.62;69.20
11053;BME280;55230;42.602;23.470;2024-01-10T08:41:02;94606.16;;;-5.93;69.40
11053;BME280;55230;42.602;23.470;2024-01-10T08:43:28;94608.75;;;-5.58;68.42
11053;BME280;55230;42.602;23.470;2024-01-10T08:45:54;94599.25;;;-5.98;68.15
11053;BME280;55230;42.602;23.470;2024-01-10T08:48:19;94608.47;;;-5.92;68.08
11053;BME280;55230;42.602;23.470;2024-01-10T08:50:44;94614.09;;;-5.67;68.03
11053;BME280;55230;42.602;23.470;2024-01-10T08:53:10;94609.47;;;-5.70;67.96
11053;BME280;55230;42.602;23.470;2024-01-10T08:55:36;94579.69;;;-6.14;68.95
11053;BME280;55230;42.602;23.470;2024-01-10T08:58:03;94614.22;;;-6.03;69.90
11053;BME280;55230;42.602;23.470;2024-01-10T09:00:28;94618.50;;;-5.62;69.82
11053;BME280;55230;42.602;23.470;2024-01-10T09:02:57;94611.88;;;-5.21;67.76
11053;BME280;55230;42.602;23.470;2024-01-10T09:05:22;94626.66;;;-5.90;69.78
11053;BME280;55230;42.602;23.470;2024-01-10T09:07:48;94621.53;;;-6.13;69.59
11053;BME280;55230;42.602;23.470;2024-01-10T09:10:13;94616.63;;;-5.67;68.92
11053;BME280;55230;42.602;23.470;2024-01-10T09:12:39;94621.38;;;-5.47;66.92
11053;BME280;55230;42.602;23.470;2024-01-10T09:15:05;94618.84;;;-5.47;68.65
11053;BME280;55230;42.602;23.470;2024-01-10T09:17:33;94600.03;;;-4.74;66.62
11053;BME280;55230;42.602;23.470;2024-01-10T09:19:58;94617.09;;;-5.58;66.16
11053;BME280;55230;42.602;23.470;2024-01-10T09:22:24;94615.19;;;-4.86;66.22
11053;BME280;55230;42.602;23.470;2024-01-10T09:24:50;94622.75;;;-4.74;65.33
11053;BME280;55230;42.602;23.470;2024-01-10T09:27:15;94610.31;;;-4.64;64.77
11053;BME280;55230;42.602;23.470;2024-01-10T09:29:40;94611.09;;;-3.67;62.32
11053;BME280;55230;42.602;23.470;2024-01-10T09:32:06;94626.81;;;-4.97;64.22
11053;BME280;55230;42.602;23.470;2024-01-10T09:34:31;94606.06;;;-5.10;65.39
11053;BME280;55230;42.602;23.470;2024-01-10T09:36:57;94617.66;;;-5.33;67.08
11053;BME280;55230;42.602;23.470;2024-01-10T09:39:23;94601.38;;;-5.72;67.79
11053;BME280;55230;42.602;23.470;2024-01-10T09:41:49;94615.06;;;-5.14;66.81
11053;BME280;55230;42.602;23.470;2024-01-10T09:44:17;94595.59;;;-4.55;64.08
11053;BME280;55230;42.602;23.470;2024-01-10T09:46:49;94589.84;;;-3.54;61.01
11053;BME280;55230;42.602;23.470;2024-01-10T09:49:16;94590.91;;;-3.95;61.99
11053;BME280;55230;42.602;23.470;2024-01-10T09:51:41;94605.97;;;-4.29;62.11
11053;BME280;55230;42.602;23.470;2024-01-10T09:54:08;94584.66;;;-4.96;65.77
11053;BME280;55230;42.602;23.470;2024-01-10T09:56:33;94608.13;;;-5.19;66.20
11053;BME280;55230;42.602;23.470;2024-01-10T09:59:01;94582.03;;;-5.13;65.36
11053;BME280;55230;42.602;23.470;2024-01-10T10:01:27;94577.53;;;-5.34;66.44
11053;BME280;55230;42.602;23.470;2024-01-10T10:03:53;94581.91;;;-4.31;65.04
11053;BME280;55230;42.602;23.470;2024-01-10T10:06:21;94591.34;;;-4.78;65.02
11053;BME280;55230;42.602;23.470;2024-01-10T10:08:47;94584.09;;;-3.95;63.71
11053;BME280;55230;42.602;23.470;2024-01-10T10:11:13;94575.16;;;-4.14;64.05
11053;BME280;55230;42.602;23.470;2024-01-10T10:13:41;94580.72;;;-3.22;60.64
11053;BME280;55230;42.602;23.470;2024-01-10T10:16:08;94578.19;;;-4.29;63.58
11053;BME280;55230;42.602;23.470;2024-01-10T10:18:35;94579.41;;;-4.95;65.08
11053;BME280;55230;42.602;23.470;2024-01-10T10:23:34;94560.84;;;-2.74;61.85
11053;BME280;55230;42.602;23.470;2024-01-10T10:26:10;94535.44;;;-2.09;56.96
11053;BME280;55230;42.602;23.470;2024-01-10T10:28:35;94532.53;;;-2.23;57.90
11053;BME280;55230;42.602;23.470;2024-01-10T10:31:01;94539.53;;;-2.30;57.65
11053;BME280;55230;42.602;23.470;2024-01-10T10:33:27;94546.84;;;-2.99;58.51
11053;BME280;55230;42.602;23.470;2024-01-10T10:35:53;94539.00;;;-2.32;58.73
11053;BME280;55230;42.602;23.470;2024-01-10T10:38:22;94527.16;;;-3.13;58.50
11053;BME280;55230;42.602;23.470;2024-01-10T10:40:47;94524.50;;;-3.24;61.18
11053;BME280;55230;42.602;23.470;2024-01-10T10:43:13;94542.72;;;-3.05;59.40
11053;BME280;55230;42.602;23.470;2024-01-10T10:45:48;94542.81;;;-4.29;63.56
11053;BME280;55230;42.602;23.470;2024-01-10T10:48:16;94518.16;;;-4.50;63.65
11053;BME280;55230;42.602;23.470;2024-01-10T10:50:50;94514.19;;;-4.17;64.50
11053;BME280;55230;42.602;23.470;2024-01-10T10:53:18;94528.38;;;-4.45;66.54
11053;BME280;55230;42.602;23.470;2024-01-10T10:55:46;94529.00;;;-4.09;64.78
11053;BME280;55230;42.602;23.470;2024-01-10T10:58:13;94518.47;;;-4.18;65.86
11053;BME280;55230;42.602;23.470;2024-01-10T11:00:40;94522.50;;;-4.05;65.63
11053;BME280;55230;42.602;23.470;2024-01-10T11:03:09;94516.84;;;-3.79;65.58
11053;BME280;55230;42.602;23.470;2024-01-10T11:05:38;94509.31;;;-4.07;65.47
11053;BME280;55230;42.602;23.470;2024-01-10T11:08:07;94499.31;;;-4.02;65.63
11053;BME280;55230;42.602;23.470;2024-01-10T11:10:36;94473.53;;;-3.66;65.21
11053;BME280;55230;42.602;23.470;2024-01-10T11:24:24;94500.75;;;-2.57;61.75
11053;BME280;55230;42.602;23.470;2024-01-10T11:26:50;94496.50;;;-2.95;63.88
11053;BME280;55230;42.602;23.470;2024-01-10T11:29:15;94476.31;;;-2.90;61.51
11053;BME280;55230;42.602;23.470;2024-01-10T11:31:41;94480.72;;;-2.32;61.32
11053;BME280;55230;42.602;23.470;2024-01-10T11:34:08;94485.56;;;-2.30;59.78
11053;BME280;55230;42.602;23.470;2024-01-10T11:36:34;94479.22;;;-3.59;62.68
11053;BME280;55230;42.602;23.470;2024-01-10T11:39:02;94479.81;;;-3.52;63.92
11053;BME280;55230;42.602;23.470;2024-01-10T11:41:30;94476.06;;;-3.66;65.44
11053;BME280;55230;42.602;23.470;2024-01-10T11:46:40;94470.75;;;-3.69;64.35
11053;BME280;55230;42.602;23.470;2024-01-10T11:49:09;94462.75;;;-3.23;64.07
11053;BME280;55230;42.602;23.470;2024-01-10T11:51:35;94451.00;;;-3.67;65.46
11053;BME280;55230;42.602;23.470;2024-01-10T11:54:01;94449.47;;;-3.68;66.40
11053;BME280;55230;42.602;23.470;2024-01-10T11:56:43;94424.75;;;-4.00;66.95
11053;BME280;55230;42.602;23.470;2024-01-10T11:59:17;94411.84;;;-3.65;65.61
11053;BME280;55230;42.602;23.470;2024-01-10T12:01:44;94421.44;;;-3.67;66.29
11053;BME280;55230;42.602;23.470;2024-01-10T12:04:09;94439.81;;;-2.67;64.25
11053;BME280;55230;42.602;23.470;2024-01-10T12:06:36;94447.00;;;-2.32;61.84
11053;BME280;55230;42.602;23.470;2024-01-10T12:09:02;94434.66;;;-2.56;63.49
11053;BME280;55230;42.602;23.470;2024-01-10T12:11:35;94430.66;;;-3.17;65.74
11053;BME280;55230;42.602;23.470;2024-01-10T12:14:03;94434.94;;;-2.52;64.92
11053;BME280;55230;42.602;23.470;2024-01-10T12:16:29;94430.31;;;-2.28;63.19
11053;BME280;55230;42.602;23.470;2024-01-10T12:18:57;94424.28;;;-3.25;66.80
11053;BME280;55230;42.602;23.470;2024-01-10T12:21:22;94412.50;;;-3.14;66.68
11053;BME280;55230;42.602;23.470;2024-01-10T12:23:48;94421.94;;;-2.83;66.22
11053;BME280;55230;42.602;23.470;2024-01-10T12:26:14;94420.50;;;-3.00;66.17
11053;BME280;55230;42.602;23.470;2024-01-10T12:28:39;94410.78;;;-3.08;66.73
11053;BME280;55230;42.602;23.470;2024-01-10T12:31:05;94417.69;;;-3.04;67.54
11053;BME280;55230;42.602;23.470;2024-01-10T12:33:37;94423.34;;;-3.19;68.62
11053;BME280;55230;42.602;23.470;2024-01-10T12:36:11;94421.31;;;-3.17;68.72
11053;BME280;55230;42.602;23.470;2024-01-10T12:38:40;94422.72;;;-2.82;67.74
11053;BME280;55230;42.602;23.470;2024-01-10T12:41:06;94426.84;;;-2.76;67.92
11053;BME280;55230;42.602;23.470;2024-01-10T12:43:34;94414.16;;;-3.63;68.65
11053;BME280;55230;42.602;23.470;2024-01-10T12:48:31;94430.56;;;-3.66;69.87
11053;BME280;55230;42.602;23.470;2024-01-10T12:50:58;94431.03;;;-3.52;68.95
11053;BME280;55230;42.602;23.470;2024-01-10T12:53:28;94440.59;;;-3.32;69.99
11053;BME280;55230;42.602;23.470;2024-01-10T12:55:54;94434.31;;;-3.30;69.48
11053;BME280;55230;42.602;23.470;2024-01-10T12:58:20;94431.50;;;-3.33;68.87
11053;BME280;55230;42.602;23.470;2024-01-10T13:00:45;94430.13;;;-3.41;68.73
11053;BME280;55230;42.602;23.470;2024-01-10T13:03:11;94424.56;;;-2.99;67.61
11053;BME280;55230;42.602;23.470;2024-01-10T13:05:36;94423.25;;;-2.80;67.95
11053;BME280;55230;42.602;23.470;2024-01-10T13:08:02;94426.22;;;-2.61;68.26
11053;BME280;55230;42.602;23.470;2024-01-10T13:10:30;94428.13;;;-3.17;69.07
11053;BME280;55230;42.602;23.470;2024-01-10T13:12:55;94427.56;;;-3.63;72.13
11053;BME280;55230;42.602;23.470;2024-01-10T13:15:21;94441.16;;;-3.69;73.09
11053;BME280;55230;42.602;23.470;2024-01-10T13:17:46;94423.97;;;-3.67;72.43
11053;BME280;55230;42.602;23.470;2024-01-10T13:23:51;94395.75;;;-3.59;71.87
11053;BME280;55230;42.602;23.470;2024-01-10T13:44:39;94404.91;;;-3.14;70.94
11053;BME280;55230;42.602;23.470;2024-01-10T13:47:04;94431.75;;;-3.52;73.85
11053;BME280;55230;42.602;23.470;2024-01-10T14:10:06;94400.84;;;-3.75;75.06
11053;BME280;55230;42.602;23.470;2024-01-10T14:12:31;94428.34;;;-3.62;74.89
11053;BME280;55230;42.602;23.470;2024-01-10T14:14:57;94437.22;;;-3.60;75.21
11053;BME280;55230;42.602;23.470;2024-01-10T14:17:25;94436.25;;;-3.75;75.94
11053;BME280;55230;42.602;23.470;2024-01-10T14:19:53;94441.22;;;-3.80;76.09
11053;BME280;55230;42.602;23.470;2024-01-10T14:22:19;94430.13;;;-3.79;76.13
11053;BME280;55230;42.602;23.470;2024-01-10T14:24:45;94440.09;;;-3.73;75.86
11053;BME280;55230;42.602;23.470;2024-01-10T14:27:10;94425.50;;;-3.82;75.80
11053;BME280;55230;42.602;23.470;2024-01-10T14:29:35;94439.78;;;-3.76;76.21
11053;BME280;55230;42.602;23.470;2024-01-10T14:32:01;94437.47;;;-3.78;75.13
11053;BME280;55230;42.602;23.470;2024-01-10T14:34:27;94440.16;;;-3.84;75.85
11053;BME280;55230;42.602;23.470;2024-01-10T14:36:52;94433.97;;;-3.94;74.96
11053;BME280;55230;42.602;23.470;2024-01-10T14:39:18;94431.56;;;-4.00;76.46
11053;BME280;55230;42.602;23.470;2024-01-10T14:41:43;94443.38;;;-4.06;76.54
11053;BME280;55230;42.602;23.470;2024-01-10T14:44:09;94438.38;;;-4.17;76.53
11053;BME280;55230;42.602;23.470;2024-01-10T14:46:35;94437.88;;;-4.19;76.26
11053;BME280;55230;42.602;23.470;2024-01-10T14:49:00;94443.38;;;-4.23;77.14
11053;BME280;55230;42.602;23.470;2024-01-10T14:51:25;94443.75;;;-4.31;76.86
11053;BME280;55230;42.602;23.470;2024-01-10T14:53:51;94442.38;;;-4.38;77.36
11053;BME280;55230;42.602;23.470;2024-01-10T14:56:17;94440.50;;;-4.43;78.99
11053;BME280;55230;42.602;23.470;2024-01-10T14:58:43;94442.41;;;-4.50;78.33
11053;BME280;55230;42.602;23.470;2024-01-10T15:01:09;94439.16;;;-4.62;78.12
11053;BME280;55230;42.602;23.470;2024-01-10T15:03:35;94437.09;;;-4.65;78.49